sensor_id;sensor_type;location;lat;lon;timestamp;P1;durP1;ratioP1;P2;durP2;ratioP2
65045;SDS011;54657;52.022;5.534;2022-08-19T00:01:52;6.15;;;5.55;;
65045;SDS011;54657;52.022;5.534;2022-08-19T00:04:21;6.07;;;5.25;;
65045;SDS011;54657;52.022;5.534;2022-08-19T00:06:49;6.38;;;5.20;;
65045;SDS011;54657;52.022;5.534;2022-08-19T00:09:15;5.32;;;4.82;;
65045;SDS011;54657;52.022;5.534;2022-08-19T00:11:43;5.93;;;5.43;;
65045;SDS011;54657;52.022;5.534;2022-08-19T00:14:10;7.63;;;5.13;;
65045;SDS011;54657;52.022;5.534;2022-08-19T00:16:37;5.57;;;5.18;;
65045;SDS011;54657;52.022;5.534;2022-08-19T00:19:04;6.07;;;5.10;;
65045;SDS011;54657;52.022;5.534;2022-08-19T00:21:30;5.53;;;4.80;;
65045;SDS011;54657;52.022;5.534;2022-08-19T00:23:56;5.40;;;4.90;;
65045;SDS011;54657;52.022;5.534;2022-08-19T00:26:26;5.25;;;4.75;;
65045;SDS011;54657;52.022;5.534;2022-08-19T00:28:52;6.00;;;4.90;;
65045;SDS011;54657;52.022;5.534;2022-08-19T00:31:18;4.90;;;4.32;;
65045;SDS011;54657;52.022;5.534;2022-08-19T00:33:43;5.35;;;4.85;;
65045;SDS011;54657;52.022;5.534;2022-08-19T00:36:09;5.03;;;4.63;;
65045;SDS011;54657;52.022;5.534;2022-08-19T00:38:36;5.55;;;5.05;;
65045;SDS011;54657;52.022;5.534;2022-08-19T00:41:04;5.05;;;4.65;;
65045;SDS011;54657;52.022;5.534;2022-08-19T00:43:30;5.38;;;4.97;;
65045;SDS011;54657;52.022;5.534;2022-08-19T00:45:56;5.60;;;5.20;;
65045;SDS011;54657;52.022;5.534;2022-08-19T00:48:21;5.45;;;4.93;;
65045;SDS011;54657;52.022;5.534;2022-08-19T00:50:48;6.15;;;5.35;;
65045;SDS011;54657;52.022;5.534;2022-08-19T00:53:18;5.68;;;4.95;;
65045;SDS011;54657;52.022;5.534;2022-08-19T00:55:46;5.97;;;5.47;;
65045;SDS011;54657;52.022;5.534;2022-08-19T00:58:15;5.03;;;4.63;;
65045;SDS011;54657;52.022;5.534;2022-08-19T01:00:43;4.85;;;4.30;;
65045;SDS011;54657;52.022;5.534;2022-08-19T01:03:11;4.80;;;4.40;;
65045;SDS011;54657;52.022;5.534;2022-08-19T01:05:39;5.30;;;4.90;;
65045;SDS011;54657;52.022;5.534;2022-08-19T01:08:07;5.82;;;5.22;;
65045;SDS011;54657;52.022;5.534;2022-08-19T01:10:33;6.00;;;5.50;;
65045;SDS011;54657;52.022;5.534;2022-08-19T01:15:38;6.30;;;5.80;;
65045;SDS011;54657;52.022;5.534;2022-08-19T01:18:09;7.20;;;5.20;;
65045;SDS011;54657;52.022;5.534;2022-08-19T01:20:36;6.18;;;5.57;;
65045;SDS011;54657;52.022;5.534;2022-08-19T01:23:03;6.03;;;5.50;;
65045;SDS011;54657;52.022;5.534;2022-08-19T01:25:30;5.68;;;5.22;;
65045;SDS011;54657;52.022;5.534;2022-08-19T01:27:57;6.57;;;5.25;;
65045;SDS011;54657;52.022;5.534;2022-08-19T01:30:31;6.00;;;5.50;;
65045;SDS011;54657;52.022;5.534;2022-08-19T01:32:58;5.28;;;4.78;;
65045;SDS011;54657;52.022;5.534;2022-08-19T01:35:25;5.60;;;5.10;;
65045;SDS011;54657;52.022;5.534;2022-08-19T01:38:38;5.40;;;5.00;;
65045;SDS011;54657;52.022;5.534;2022-08-19T01:40:46;6.00;;;5.40;;
65045;SDS011;54657;52.022;5.534;2022-08-19T01:43:12;5.55;;;5.05;;
65045;SDS011;54657;52.022;5.534;2022-08-19T01:45:37;6.20;;;5.57;;
65045;SDS011;54657;52.022;5.534;2022-08-19T01:48:05;5.72;;;5.30;;
65045;SDS011;54657;52.022;5.534;2022-08-19T01:50:32;6.13;;;5.53;;
65045;SDS011;54657;52.022;5.534;2022-08-19T01:52:59;7.10;;;5.50;;
65045;SDS011;54657;52.022;5.534;2022-08-19T01:55:26;6.65;;;5.75;;
65045;SDS011;54657;52.022;5.534;2022-08-19T01:57:53;6.30;;;5.70;;
65045;SDS011;54657;52.022;5.534;2022-08-19T02:00:23;6.40;;;5.90;;
65045;SDS011;54657;52.022;5.534;2022-08-19T02:02:52;5.25;;;4.85;;
65045;SDS011;54657;52.022;5.534;2022-08-19T02:05:17;5.43;;;5.03;;
65045;SDS011;54657;52.022;5.534;2022-08-19T02:07:45;5.90;;;5.43;;
65045;SDS011;54657;52.022;5.534;2022-08-19T02:10:13;6.00;;;5.30;;
65045;SDS011;54657;52.022;5.534;2022-08-19T02:12:41;6.10;;;5.60;;
65045;SDS011;54657;52.022;5.534;2022-08-19T02:15:07;5.45;;;4.95;;
65045;SDS011;54657;52.022;5.534;2022-08-19T02:17:33;5.63;;;5.13;;
65045;SDS011;54657;52.022;5.534;2022-08-19T02:19:59;5.80;;;5.15;;
65045;SDS011;54657;52.022;5.534;2022-08-19T02:22:25;5.60;;;5.13;;
65045;SDS011;54657;52.022;5.534;2022-08-19T02:24:51;5.68;;;5.03;;
65045;SDS011;54657;52.022;5.534;2022-08-19T02:27:17;5.82;;;5.25;;
65045;SDS011;54657;52.022;5.534;2022-08-19T02:29:44;6.05;;;5.45;;
65045;SDS011;54657;52.022;5.534;2022-08-19T02:32:11;7.43;;;5.57;;
65045;SDS011;54657;52.022;5.534;2022-08-19T02:34:36;6.88;;;5.43;;
65045;SDS011;54657;52.022;5.534;2022-08-19T02:37:02;5.80;;;5.30;;
65045;SDS011;54657;52.022;5.534;2022-08-19T02:39:27;5.95;;;5.45;;
65045;SDS011;54657;52.022;5.534;2022-08-19T02:41:53;5.60;;;5.20;;
65045;SDS011;54657;52.022;5.534;2022-08-19T02:44:19;5.95;;;5.45;;
65045;SDS011;54657;52.022;5.534;2022-08-19T02:46:47;5.45;;;4.97;;
65045;SDS011;54657;52.022;5.534;2022-08-19T02:49:15;5.38;;;4.85;;
65045;SDS011;54657;52.022;5.534;2022-08-19T02:51:42;6.03;;;4.95;;
65045;SDS011;54657;52.022;5.534;2022-08-19T02:54:09;5.45;;;5.00;;
65045;SDS011;54657;52.022;5.534;2022-08-19T02:56:36;5.90;;;5.38;;
65045;SDS011;54657;52.022;5.534;2022-08-19T02:59:03;5.95;;;5.25;;
65045;SDS011;54657;52.022;5.534;2022-08-19T03:01:33;6.32;;;5.72;;
65045;SDS011;54657;52.022;5.534;2022-08-19T03:04:00;5.63;;;5.22;;
65045;SDS011;54657;52.022;5.534;2022-08-19T03:06:28;6.18;;;5.07;;
65045;SDS011;54657;52.022;5.534;2022-08-19T03:08:54;6.05;;;5.30;;
65045;SDS011;54657;52.022;5.534;2022-08-19T03:13:50;8.10;;;5.03;;
65045;SDS011;54657;52.022;5.534;2022-08-19T03:16:26;6.63;;;5.00;;
65045;SDS011;54657;52.022;5.534;2022-08-19T03:18:53;6.22;;;5.63;;
65045;SDS011;54657;52.022;5.534;2022-08-19T03:21:22;6.32;;;5.63;;
65045;SDS011;54657;52.022;5.534;2022-08-19T03:23:54;5.75;;;5.25;;
65045;SDS011;54657;52.022;5.534;2022-08-19T03:26:21;5.72;;;5.00;;
65045;SDS011;54657;52.022;5.534;2022-08-19T03:28:46;6.38;;;5.78;;
65045;SDS011;54657;52.022;5.534;2022-08-19T03:31:15;8.20;;;6.20;;
65045;SDS011;54657;52.022;5.534;2022-08-19T03:33:42;6.22;;;5.65;;
65045;SDS011;54657;52.022;5.534;2022-08-19T03:36:10;6.45;;;5.85;;
65045;SDS011;54657;52.022;5.534;2022-08-19T03:38:39;6.80;;;6.18;;
65045;SDS011;54657;52.022;5.534;2022-08-19T03:41:11;7.27;;;6.57;;
65045;SDS011;54657;52.022;5.534;2022-08-19T03:43:39;7.15;;;6.55;;
65045;SDS011;54657;52.022;5.534;2022-08-19T03:46:07;8.15;;;6.53;;
65045;SDS011;54657;52.022;5.534;2022-08-19T03:51:05;6.40;;;5.88;;
65045;SDS011;54657;52.022;5.534;2022-08-19T03:53:32;7.68;;;6.95;;
65045;SDS011;54657;52.022;5.534;2022-08-19T03:55:59;7.57;;;6.95;;
65045;SDS011;54657;52.022;5.534;2022-08-19T03:58:25;7.72;;;7.03;;
65045;SDS011;54657;52.022;5.534;2022-08-19T04:00:53;7.22;;;6.63;;
65045;SDS011;54657;52.022;5.534;2022-08-19T04:03:20;6.70;;;6.00;;
65045;SDS011;54657;52.022;5.534;2022-08-19T04:05:46;8.02;;;6.10;;
65045;SDS011;54657;52.022;5.534;2022-08-19T04:08:12;6.90;;;6.20;;
65045;SDS011;54657;52.022;5.534;2022-08-19T04:10:40;6.65;;;6.05;;
65045;SDS011;54657;52.022;5.534;2022-08-19T04:13:06;7.07;;;6.38;;
65045;SDS011;54657;52.022;5.534;2022-08-19T04:15:33;8.73;;;7.07;;
65045;SDS011;54657;52.022;5.534;2022-08-19T04:20:32;6.53;;;5.93;;
65045;SDS011;54657;52.022;5.534;2022-08-19T04:23:03;7.85;;;6.95;;
65045;SDS011;54657;52.022;5.534;2022-08-19T04:25:34;6.75;;;6.13;;
65045;SDS011;54657;52.022;5.534;2022-08-19T04:28:01;7.00;;;6.23;;
65045;SDS011;54657;52.022;5.534;2022-08-19T04:30:26;6.78;;;6.18;;
65045;SDS011;54657;52.022;5.534;2022-08-19T04:32:52;7.38;;;6.68;;
65045;SDS011;54657;52.022;5.534;2022-08-19T04:35:17;8.45;;;6.40;;
65045;SDS011;54657;52.022;5.534;2022-08-19T04:37:43;8.23;;;6.90;;
65045;SDS011;54657;52.022;5.534;2022-08-19T04:40:08;7.18;;;6.53;;
65045;SDS011;54657;52.022;5.534;2022-08-19T04:42:53;7.43;;;6.72;;
65045;SDS011;54657;52.022;5.534;2022-08-19T04:45:18;7.68;;;6.88;;
65045;SDS011;54657;52.022;5.534;2022-08-19T04:47:44;7.25;;;6.57;;
65045;SDS011;54657;52.022;5.534;2022-08-19T04:50:10;7.38;;;6.68;;
65045;SDS011;54657;52.022;5.534;2022-08-19T04:52:37;7.22;;;6.53;;
65045;SDS011;54657;52.022;5.534;2022-08-19T04:55:07;8.32;;;7.10;;
65045;SDS011;54657;52.022;5.534;2022-08-19T04:57:34;9.13;;;8.32;;
65045;SDS011;54657;52.022;5.534;2022-08-19T05:00:00;7.53;;;6.82;;
65045;SDS011;54657;52.022;5.534;2022-08-19T05:02:26;8.68;;;7.72;;
65045;SDS011;54657;52.022;5.534;2022-08-19T05:04:56;8.75;;;7.88;;
65045;SDS011;54657;52.022;5.534;2022-08-19T05:07:23;9.27;;;8.27;;
65045;SDS011;54657;52.022;5.534;2022-08-19T05:09:49;8.55;;;7.75;;
65045;SDS011;54657;52.022;5.534;2022-08-19T05:12:14;9.15;;;7.63;;
65045;SDS011;54657;52.022;5.534;2022-08-19T05:14:40;9.18;;;8.30;;
65045;SDS011;54657;52.022;5.534;2022-08-19T05:17:06;7.85;;;7.05;;
65045;SDS011;54657;52.022;5.534;2022-08-19T05:19:31;8.85;;;7.88;;
65045;SDS011;54657;52.022;5.534;2022-08-19T05:22:15;9.27;;;7.85;;
65045;SDS011;54657;52.022;5.534;2022-08-19T05:25:01;7.95;;;7.15;;
65045;SDS011;54657;52.022;5.534;2022-08-19T05:27:29;8.38;;;7.68;;
65045;SDS011;54657;52.022;5.534;2022-08-19T05:29:54;8.38;;;7.68;;
65045;SDS011;54657;52.022;5.534;2022-08-19T05:32:20;8.40;;;7.35;;
65045;SDS011;54657;52.022;5.534;2022-08-19T05:34:46;8.05;;;7.32;;
65045;SDS011;54657;52.022;5.534;2022-08-19T05:37:12;8.63;;;7.28;;
65045;SDS011;54657;52.022;5.534;2022-08-19T05:39:37;8.52;;;7.72;;
65045;SDS011;54657;52.022;5.534;2022-08-19T05:42:04;10.25;;;8.68;;
65045;SDS011;54657;52.022;5.534;2022-08-19T05:44:33;10.50;;;8.68;;
65045;SDS011;54657;52.022;5.534;2022-08-19T05:47:03;10.18;;;8.05;;
65045;SDS011;54657;52.022;5.534;2022-08-19T05:49:32;9.95;;;8.95;;
65045;SDS011;54657;52.022;5.534;2022-08-19T05:51:58;12.05;;;10.85;;
65045;SDS011;54657;52.022;5.534;2022-08-19T05:54:30;13.88;;;11.75;;
65045;SDS011;54657;52.022;5.534;2022-08-19T05:56:56;14.93;;;12.40;;
65045;SDS011;54657;52.022;5.534;2022-08-19T05:59:22;14.43;;;11.82;;
65045;SDS011;54657;52.022;5.534;2022-08-19T06:01:48;17.70;;;13.70;;
65045;SDS011;54657;52.022;5.534;2022-08-19T06:04:16;19.73;;;15.40;;
65045;SDS011;54657;52.022;5.534;2022-08-19T06:06:48;20.13;;;17.27;;
65045;SDS011;54657;52.022;5.534;2022-08-19T06:09:16;25.60;;;20.60;;
65045;SDS011;54657;52.022;5.534;2022-08-19T06:11:44;23.17;;;17.98;;
65045;SDS011;54657;52.022;5.534;2022-08-19T06:14:19;31.65;;;22.58;;
65045;SDS011;54657;52.022;5.534;2022-08-19T06:16:46;36.65;;;23.88;;
65045;SDS011;54657;52.022;5.534;2022-08-19T06:19:13;33.17;;;22.83;;
65045;SDS011;54657;52.022;5.534;2022-08-19T06:21:43;32.47;;;21.63;;
65045;SDS011;54657;52.022;5.534;2022-08-19T06:24:11;31.08;;;21.27;;
65045;SDS011;54657;52.022;5.534;2022-08-19T06:26:40;37.38;;;25.63;;
65045;SDS011;54657;52.022;5.534;2022-08-19T06:29:09;36.30;;;26.17;;
65045;SDS011;54657;52.022;5.534;2022-08-19T06:31:36;36.22;;;26.20;;
65045;SDS011;54657;52.022;5.534;2022-08-19T06:34:05;36.17;;;25.63;;
65045;SDS011;54657;52.022;5.534;2022-08-19T06:36:33;36.05;;;25.65;;
65045;SDS011;54657;52.022;5.534;2022-08-19T06:39:05;40.30;;;26.27;;
65045;SDS011;54657;52.022;5.534;2022-08-19T06:41:37;36.80;;;26.88;;
65045;SDS011;54657;52.022;5.534;2022-08-19T06:44:05;43.05;;;28.55;;
65045;SDS011;54657;52.022;5.534;2022-08-19T06:46:31;45.33;;;30.20;;
65045;SDS011;54657;52.022;5.534;2022-08-19T06:48:57;46.65;;;30.42;;
65045;SDS011;54657;52.022;5.534;2022-08-19T06:51:23;48.33;;;30.67;;
65045;SDS011;54657;52.022;5.534;2022-08-19T06:53:50;46.08;;;33.67;;
65045;SDS011;54657;52.022;5.534;2022-08-19T06:56:18;58.45;;;35.20;;
65045;SDS011;54657;52.022;5.534;2022-08-19T06:58:46;46.88;;;32.00;;
65045;SDS011;54657;52.022;5.534;2022-08-19T07:01:16;48.97;;;33.60;;
65045;SDS011;54657;52.022;5.534;2022-08-19T07:03:42;50.20;;;32.67;;
65045;SDS011;54657;52.022;5.534;2022-08-19T07:06:11;51.90;;;33.83;;
65045;SDS011;54657;52.022;5.534;2022-08-19T07:08:40;49.85;;;32.78;;
65045;SDS011;54657;52.022;5.534;2022-08-19T07:11:08;48.47;;;31.60;;
65045;SDS011;54657;52.022;5.534;2022-08-19T07:13:35;45.08;;;30.02;;
65045;SDS011;54657;52.022;5.534;2022-08-19T07:16:08;49.13;;;31.63;;
65045;SDS011;54657;52.022;5.534;2022-08-19T07:18:36;43.50;;;29.42;;
65045;SDS011;54657;52.022;5.534;2022-08-19T07:21:10;55.15;;;32.63;;
65045;SDS011;54657;52.022;5.534;2022-08-19T07:23:37;48.60;;;30.88;;
65045;SDS011;54657;52.022;5.534;2022-08-19T07:26:06;44.95;;;29.33;;
65045;SDS011;54657;52.022;5.534;2022-08-19T07:28:44;47.25;;;32.28;;
65045;SDS011;54657;52.022;5.534;2022-08-19T07:31:11;46.78;;;30.80;;
65045;SDS011;54657;52.022;5.534;2022-08-19T07:33:39;45.05;;;29.40;;
65045;SDS011;54657;52.022;5.534;2022-08-19T07:36:06;49.72;;;31.13;;
65045;SDS011;54657;52.022;5.534;2022-08-19T07:38:36;50.85;;;31.42;;
65045;SDS011;54657;52.022;5.534;2022-08-19T07:41:04;50.75;;;31.77;;
65045;SDS011;54657;52.022;5.534;2022-08-19T07:43:29;49.20;;;31.65;;
65045;SDS011;54657;52.022;5.534;2022-08-19T07:45:55;54.15;;;35.17;;
65045;SDS011;54657;52.022;5.534;2022-08-19T07:48:25;46.35;;;30.85;;
65045;SDS011;54657;52.022;5.534;2022-08-19T07:50:52;50.38;;;32.13;;
65045;SDS011;54657;52.022;5.534;2022-08-19T07:53:20;48.90;;;30.98;;
65045;SDS011;54657;52.022;5.534;2022-08-19T07:55:47;47.60;;;31.13;;
65045;SDS011;54657;52.022;5.534;2022-08-19T07:58:14;45.85;;;30.88;;
65045;SDS011;54657;52.022;5.534;2022-08-19T08:00:42;43.78;;;29.40;;
65045;SDS011;54657;52.022;5.534;2022-08-19T08:03:09;45.85;;;30.13;;
65045;SDS011;54657;52.022;5.534;2022-08-19T08:05:35;46.25;;;31.70;;
65045;SDS011;54657;52.022;5.534;2022-08-19T08:08:27;43.22;;;30.25;;
65045;SDS011;54657;52.022;5.534;2022-08-19T08:11:13;41.38;;;28.73;;
65045;SDS011;54657;52.022;5.534;2022-08-19T08:13:41;43.22;;;29.73;;
65045;SDS011;54657;52.022;5.534;2022-08-19T08:16:07;44.63;;;31.10;;
65045;SDS011;54657;52.022;5.534;2022-08-19T08:18:33;50.28;;;31.48;;
65045;SDS011;54657;52.022;5.534;2022-08-19T08:21:06;37.80;;;25.98;;
65045;SDS011;54657;52.022;5.534;2022-08-19T08:23:31;40.42;;;26.80;;
65045;SDS011;54657;52.022;5.534;2022-08-19T08:25:57;36.53;;;25.98;;
65045;SDS011;54657;52.022;5.534;2022-08-19T08:28:25;35.72;;;26.02;;
65045;SDS011;54657;52.022;5.534;2022-08-19T08:30:52;37.58;;;25.45;;
65045;SDS011;54657;52.022;5.534;2022-08-19T08:33:22;35.97;;;26.17;;
65045;SDS011;54657;52.022;5.534;2022-08-19T08:35:49;37.22;;;26.05;;
65045;SDS011;54657;52.022;5.534;2022-08-19T08:38:15;38.65;;;27.10;;
65045;SDS011;54657;52.022;5.534;2022-08-19T08:40:44;35.53;;;26.50;;
65045;SDS011;54657;52.022;5.534;2022-08-19T08:43:22;37.15;;;26.08;;
65045;SDS011;54657;52.022;5.534;2022-08-19T08:45:55;32.30;;;24.20;;
65045;SDS011;54657;52.022;5.534;2022-08-19T08:51:00;33.00;;;24.30;;
65045;SDS011;54657;52.022;5.534;2022-08-19T08:53:30;33.35;;;24.58;;
65045;SDS011;54657;52.022;5.534;2022-08-19T08:55:56;38.40;;;26.80;;
65045;SDS011;54657;52.022;5.534;2022-08-19T08:58:41;37.22;;;27.80;;
65045;SDS011;54657;52.022;5.534;2022-08-19T09:01:10;35.03;;;24.92;;
65045;SDS011;54657;52.022;5.534;2022-08-19T09:03:37;37.83;;;26.02;;
65045;SDS011;54657;52.022;5.534;2022-08-19T09:06:12;32.95;;;25.20;;
65045;SDS011;54657;52.022;5.534;2022-08-19T09:11:39;30.65;;;23.83;;
65045;SDS011;54657;52.022;5.534;2022-08-19T09:14:31;31.70;;;23.15;;
65045;SDS011;54657;52.022;5.534;2022-08-19T09:16:57;28.88;;;21.23;;
65045;SDS011;54657;52.022;5.534;2022-08-19T09:19:24;35.97;;;24.27;;
65045;SDS011;54657;52.022;5.534;2022-08-19T09:21:50;30.60;;;22.90;;
65045;SDS011;54657;52.022;5.534;2022-08-19T09:24:16;26.83;;;22.05;;
65045;SDS011;54657;52.022;5.534;2022-08-19T09:26:41;28.33;;;21.50;;
65045;SDS011;54657;52.022;5.534;2022-08-19T09:29:08;25.05;;;20.77;;
65045;SDS011;54657;52.022;5.534;2022-08-19T09:31:35;23.33;;;19.02;;
65045;SDS011;54657;52.022;5.534;2022-08-19T09:34:00;29.35;;;21.13;;
65045;SDS011;54657;52.022;5.534;2022-08-19T09:36:28;25.42;;;20.35;;
65045;SDS011;54657;52.022;5.534;2022-08-19T09:38:57;27.08;;;21.10;;
65045;SDS011;54657;52.022;5.534;2022-08-19T09:41:24;26.42;;;20.00;;
65045;SDS011;54657;52.022;5.534;2022-08-19T09:43:51;24.00;;;19.95;;
65045;SDS011;54657;52.022;5.534;2022-08-19T09:46:20;25.58;;;19.27;;
65045;SDS011;54657;52.022;5.534;2022-08-19T09:48:47;25.20;;;19.08;;
65045;SDS011;54657;52.022;5.534;2022-08-19T09:51:16;21.52;;;16.70;;
65045;SDS011;54657;52.022;5.534;2022-08-19T09:53:45;23.50;;;18.23;;
65045;SDS011;54657;52.022;5.534;2022-08-19T09:56:11;19.67;;;16.25;;
65045;SDS011;54657;52.022;5.534;2022-08-19T09:58:38;25.15;;;17.27;;
65045;SDS011;54657;52.022;5.534;2022-08-19T10:01:05;19.63;;;17.15;;
65045;SDS011;54657;52.022;5.534;2022-08-19T10:03:32;22.90;;;18.60;;
65045;SDS011;54657;52.022;5.534;2022-08-19T10:06:00;22.52;;;17.10;;
65045;SDS011;54657;52.022;5.534;2022-08-19T10:08:29;17.90;;;15.75;;
65045;SDS011;54657;52.022;5.534;2022-08-19T10:10:57;20.83;;;16.45;;
65045;SDS011;54657;52.022;5.534;2022-08-19T10:13:25;16.65;;;14.93;;
65045;SDS011;54657;52.022;5.534;2022-08-19T10:15:54;19.10;;;15.80;;
65045;SDS011;54657;52.022;5.534;2022-08-19T10:18:22;19.90;;;15.70;;
65045;SDS011;54657;52.022;5.534;2022-08-19T10:20:49;17.92;;;15.07;;
65045;SDS011;54657;52.022;5.534;2022-08-19T10:23:17;18.40;;;15.38;;
65045;SDS011;54657;52.022;5.534;2022-08-19T10:25:44;22.63;;;17.83;;
65045;SDS011;54657;52.022;5.534;2022-08-19T10:28:10;19.00;;;16.45;;
65045;SDS011;54657;52.022;5.534;2022-08-19T10:30:37;19.58;;;16.92;;
65045;SDS011;54657;52.022;5.534;2022-08-19T10:33:04;21.30;;;16.38;;
65045;SDS011;54657;52.022;5.534;2022-08-19T10:35:30;20.38;;;16.45;;
65045;SDS011;54657;52.022;5.534;2022-08-19T10:37:56;21.45;;;17.48;;
65045;SDS011;54657;52.022;5.534;2022-08-19T10:40:24;22.83;;;17.00;;
65045;SDS011;54657;52.022;5.534;2022-08-19T10:42:51;22.30;;;18.42;;
65045;SDS011;54657;52.022;5.534;2022-08-19T10:45:16;21.75;;;17.02;;
65045;SDS011;54657;52.022;5.534;2022-08-19T10:47:42;21.15;;;16.58;;
65045;SDS011;54657;52.022;5.534;2022-08-19T10:50:07;24.27;;;18.05;;
65045;SDS011;54657;52.022;5.534;2022-08-19T10:52:51;21.48;;;16.63;;
65045;SDS011;54657;52.022;5.534;2022-08-19T10:55:21;23.42;;;18.00;;
65045;SDS011;54657;52.022;5.534;2022-08-19T10:58:13;25.25;;;16.80;;
65045;SDS011;54657;52.022;5.534;2022-08-19T11:00:41;23.02;;;19.08;;
65045;SDS011;54657;52.022;5.534;2022-08-19T11:03:08;24.15;;;18.65;;
65045;SDS011;54657;52.022;5.534;2022-08-19T11:05:33;23.17;;;20.67;;
65045;SDS011;54657;52.022;5.534;2022-08-19T11:07:59;23.77;;;20.40;;
65045;SDS011;54657;52.022;5.534;2022-08-19T11:10:24;21.77;;;18.00;;
65045;SDS011;54657;52.022;5.534;2022-08-19T11:12:50;23.40;;;19.48;;
65045;SDS011;54657;52.022;5.534;2022-08-19T11:15:19;23.40;;;19.40;;
65045;SDS011;54657;52.022;5.534;2022-08-19T11:17:45;24.80;;;20.52;;
65045;SDS011;54657;52.022;5.534;2022-08-19T11:20:11;23.70;;;21.15;;
65045;SDS011;54657;52.022;5.534;2022-08-19T11:22:39;21.88;;;19.30;;
65045;SDS011;54657;52.022;5.534;2022-08-19T11:25:06;21.52;;;19.00;;
65045;SDS011;54657;52.022;5.534;2022-08-19T11:27:32;21.55;;;19.27;;
65045;SDS011;54657;52.022;5.534;2022-08-19T11:29:58;29.98;;;21.20;;
65045;SDS011;54657;52.022;5.534;2022-08-19T11:32:25;21.88;;;19.58;;
65045;SDS011;54657;52.022;5.534;2022-08-19T11:34:51;21.92;;;19.10;;
65045;SDS011;54657;52.022;5.534;2022-08-19T11:37:16;25.25;;;20.30;;
65045;SDS011;54657;52.022;5.534;2022-08-19T11:39:42;25.42;;;21.13;;
65045;SDS011;54657;52.022;5.534;2022-08-19T11:42:07;26.23;;;22.17;;
65045;SDS011;54657;52.022;5.534;2022-08-19T11:44:51;25.33;;;21.60;;
65045;SDS011;54657;52.022;5.534;2022-08-19T11:47:17;24.13;;;21.25;;
65045;SDS011;54657;52.022;5.534;2022-08-19T11:49:43;24.98;;;21.83;;
65045;SDS011;54657;52.022;5.534;2022-08-19T11:52:08;27.10;;;22.45;;
65045;SDS011;54657;52.022;5.534;2022-08-19T11:54:34;30.38;;;22.98;;
65045;SDS011;54657;52.022;5.534;2022-08-19T11:57:01;27.13;;;21.65;;
65045;SDS011;54657;52.022;5.534;2022-08-19T11:59:28;23.52;;;19.67;;
65045;SDS011;54657;52.022;5.534;2022-08-19T12:01:54;24.95;;;22.15;;
65045;SDS011;54657;52.022;5.534;2022-08-19T12:04:20;25.67;;;21.48;;
65045;SDS011;54657;52.022;5.534;2022-08-19T12:06:46;24.08;;;21.27;;
65045;SDS011;54657;52.022;5.534;2022-08-19T12:09:12;24.50;;;19.60;;
65045;SDS011;54657;52.022;5.534;2022-08-19T12:11:39;21.73;;;19.45;;
65045;SDS011;54657;52.022;5.534;2022-08-19T12:14:06;24.35;;;21.83;;
65045;SDS011;54657;52.022;5.534;2022-08-19T12:16:33;22.42;;;19.95;;
65045;SDS011;54657;52.022;5.534;2022-08-19T12:18:59;25.60;;;22.85;;
65045;SDS011;54657;52.022;5.534;2022-08-19T12:21:29;24.92;;;22.00;;
65045;SDS011;54657;52.022;5.534;2022-08-19T12:23:56;25.52;;;22.45;;
65045;SDS011;54657;52.022;5.534;2022-08-19T12:26:23;25.75;;;20.95;;
65045;SDS011;54657;52.022;5.534;2022-08-19T12:28:50;24.83;;;20.70;;
65045;SDS011;54657;52.022;5.534;2022-08-19T12:31:16;24.55;;;21.13;;
65045;SDS011;54657;52.022;5.534;2022-08-19T12:33:42;27.45;;;21.65;;
65045;SDS011;54657;52.022;5.534;2022-08-19T12:36:10;26.95;;;23.13;;
65045;SDS011;54657;52.022;5.534;2022-08-19T12:38:37;27.52;;;21.00;;
65045;SDS011;54657;52.022;5.534;2022-08-19T12:41:04;25.92;;;20.92;;
65045;SDS011;54657;52.022;5.534;2022-08-19T12:43:31;26.73;;;20.52;;
65045;SDS011;54657;52.022;5.534;2022-08-19T12:45:57;20.05;;;17.83;;
65045;SDS011;54657;52.022;5.534;2022-08-19T12:48:22;20.30;;;17.88;;
65045;SDS011;54657;52.022;5.534;2022-08-19T12:50:48;22.80;;;17.15;;
65045;SDS011;54657;52.022;5.534;2022-08-19T12:53:14;18.55;;;16.65;;
65045;SDS011;54657;52.022;5.534;2022-08-19T12:55:40;20.60;;;16.33;;
65045;SDS011;54657;52.022;5.534;2022-08-19T12:58:07;18.35;;;16.55;;
65045;SDS011;54657;52.022;5.534;2022-08-19T13:00:33;22.50;;;18.20;;
65045;SDS011;54657;52.022;5.534;2022-08-19T13:02:59;19.80;;;16.63;;
65045;SDS011;54657;52.022;5.534;2022-08-19T13:05:27;18.55;;;16.38;;
65045;SDS011;54657;52.022;5.534;2022-08-19T13:07:54;20.40;;;18.15;;
65045;SDS011;54657;52.022;5.534;2022-08-19T13:10:22;19.60;;;17.73;;
65045;SDS011;54657;52.022;5.534;2022-08-19T13:12:50;19.98;;;17.70;;
65045;SDS011;54657;52.022;5.534;2022-08-19T13:15:18;18.88;;;16.38;;
65045;SDS011;54657;52.022;5.534;2022-08-19T13:17:45;19.85;;;17.60;;
65045;SDS011;54657;52.022;5.534;2022-08-19T13:20:15;19.58;;;16.63;;
65045;SDS011;54657;52.022;5.534;2022-08-19T13:22:44;17.80;;;15.50;;
65045;SDS011;54657;52.022;5.534;2022-08-19T13:25:11;18.02;;;14.70;;
65045;SDS011;54657;52.022;5.534;2022-08-19T13:27:38;16.98;;;14.73;;
65045;SDS011;54657;52.022;5.534;2022-08-19T13:30:06;13.98;;;12.52;;
65045;SDS011;54657;52.022;5.534;2022-08-19T13:32:53;13.13;;;11.70;;
65045;SDS011;54657;52.022;5.534;2022-08-19T13:36:12;13.18;;;11.43;;
65045;SDS011;54657;52.022;5.534;2022-08-19T13:38:32;14.25;;;11.70;;
65045;SDS011;54657;52.022;5.534;2022-08-19T13:41:03;14.30;;;12.63;;
65045;SDS011;54657;52.022;5.534;2022-08-19T13:43:30;14.85;;;13.10;;
65045;SDS011;54657;52.022;5.534;2022-08-19T13:45:55;13.55;;;12.23;;
65045;SDS011;54657;52.022;5.534;2022-08-19T13:48:21;16.58;;;12.85;;
65045;SDS011;54657;52.022;5.534;2022-08-19T13:50:48;15.25;;;12.32;;
65045;SDS011;54657;52.022;5.534;2022-08-19T13:53:14;17.80;;;13.20;;
65045;SDS011;54657;52.022;5.534;2022-08-19T13:55:41;15.82;;;13.02;;
65045;SDS011;54657;52.022;5.534;2022-08-19T13:58:08;13.98;;;12.73;;
65045;SDS011;54657;52.022;5.534;2022-08-19T14:00:36;14.00;;;11.77;;
65045;SDS011;54657;52.022;5.534;2022-08-19T14:03:04;13.93;;;12.52;;
65045;SDS011;54657;52.022;5.534;2022-08-19T14:05:31;16.90;;;12.20;;
65045;SDS011;54657;52.022;5.534;2022-08-19T14:07:56;12.60;;;11.23;;
65045;SDS011;54657;52.022;5.534;2022-08-19T14:10:23;13.52;;;11.02;;
65045;SDS011;54657;52.022;5.534;2022-08-19T14:12:52;11.43;;;9.88;;
65045;SDS011;54657;52.022;5.534;2022-08-19T14:15:20;9.20;;;8.27;;
65045;SDS011;54657;52.022;5.534;2022-08-19T14:17:46;10.13;;;7.80;;
65045;SDS011;54657;52.022;5.534;2022-08-19T14:20:13;11.63;;;7.80;;
65045;SDS011;54657;52.022;5.534;2022-08-19T14:22:40;21.38;;;9.20;;
65045;SDS011;54657;52.022;5.534;2022-08-19T14:25:08;14.27;;;8.52;;
65045;SDS011;54657;52.022;5.534;2022-08-19T14:27:36;12.10;;;8.18;;
65045;SDS011;54657;52.022;5.534;2022-08-19T14:30:04;8.05;;;7.00;;
65045;SDS011;54657;52.022;5.534;2022-08-19T14:32:31;11.15;;;7.93;;
65045;SDS011;54657;52.022;5.534;2022-08-19T14:34:57;8.52;;;7.10;;
65045;SDS011;54657;52.022;5.534;2022-08-19T14:37:23;9.85;;;6.55;;
65045;SDS011;54657;52.022;5.534;2022-08-19T14:39:49;6.95;;;6.00;;
65045;SDS011;54657;52.022;5.534;2022-08-19T14:42:14;6.70;;;6.10;;
65045;SDS011;54657;52.022;5.534;2022-08-19T14:44:40;5.75;;;5.22;;
65045;SDS011;54657;52.022;5.534;2022-08-19T14:47:06;6.07;;;5.57;;
65045;SDS011;54657;52.022;5.534;2022-08-19T14:49:32;6.15;;;5.53;;
65045;SDS011;54657;52.022;5.534;2022-08-19T14:51:58;6.15;;;5.65;;
65045;SDS011;54657;52.022;5.534;2022-08-19T14:54:24;5.95;;;5.38;;